Time;durP1;ratioP1;P1;durP2;ratioP2;P2;SDS_P1;SDS_P2;PMS_P1;PMS_P2;Temp;Humidity;BMP_temperature;BMP_pressure;BME280_temperature;BME280_humidity;BME280_pressure;Samples;Min_cycle;Max_cycle;Signal;HPM_P1;HPM_P2
2022/07/11 00:01:59;;;;;;;5.93;2.55;;;17.20;99.90;;;;;;4883094;29;37798;-81
2022/07/11 00:04:29;;;;;;;7.90;2.65;;;17.20;99.90;;;;;;4897978;29;38684;-81
2022/07/11 00:07:00;;;;;;;7.57;2.83;;;17.20;99.90;;;;;;4881265;29;40247;-80
2022/07/11 00:09:27;;;;;;;5.25;2.42;;;17.20;99.90;;;;;;4895592;29;37930;-80
2022/07/11 00:11:54;;;;;;;9.57;2.63;;;17.20;99.90;;;;;;4883146;29;38541;-81
2022/07/11 00:14:21;;;;;;;7.25;2.70;;;17.20;99.90;;;;;;4893582;29;38283;-80
2022/07/11 00:16:48;;;;;;;9.73;3.15;;;17.20;99.90;;;;;;4886440;29;38716;-81
2022/07/11 00:19:15;;;;;;;7.82;2.47;;;17.20;99.90;;;;;;4887021;29;38400;-81
2022/07/11 00:21:42;;;;;;;5.50;2.30;;;17.20;99.90;;;;;;4895692;29;36703;-80
2022/07/11 00:24:08;;;;;;;5.70;2.53;;;17.20;99.90;;;;;;4882772;29;37525;-81
2022/07/11 00:26:37;;;;;;;5.45;2.70;;;17.30;99.90;;;;;;4899476;29;38896;-80
2022/07/11 00:29:05;;;;;;;4.93;2.80;;;17.30;99.90;;;;;;4878946;29;38449;-81
2022/07/11 00:31:33;;;;;;;7.57;2.58;;;17.40;99.90;;;;;;4899263;29;37261;-81
2022/07/11 00:34:01;;;;;;;11.65;4.25;;;17.40;99.90;;;;;;4879683;29;36281;-82
2022/07/11 00:36:28;;;;;;;7.55;2.88;;;17.40;99.90;;;;;;4881206;29;48385;-81
2022/07/11 00:38:55;;;;;;;7.55;2.30;;;17.40;99.90;;;;;;4897633;29;39700;-81
2022/07/11 00:41:21;;;;;;;7.93;2.40;;;17.50;99.90;;;;;;4878878;29;37894;-80
2022/07/11 00:43:59;;;;;;;5.55;2.22;;;17.50;99.90;;;;;;4893325;29;38426;-81
2022/07/11 00:46:27;;;;;;;6.07;2.40;;;17.60;99.90;;;;;;4880342;29;38283;-80
2022/07/11 00:48:54;;;;;;;7.50;2.42;;;17.60;99.90;;;;;;4897432;29;37543;-81
2022/07/11 00:51:22;;;;;;;9.10;2.83;;;17.60;99.90;;;;;;4899174;29;38214;-81
2022/07/11 00:53:57;;;;;;;5.80;2.03;;;17.60;99.90;;;;;;4894689;29;36385;-81
2022/07/11 00:56:41;;;;;;;4.97;1.95;;;17.60;99.90;;;;;;4880716;29;39266;-80
2022/07/11 00:59:08;;;;;;;5.78;2.40;;;17.60;99.90;;;;;;4866669;29;38847;-80
2022/07/11 01:01:38;;;;;;;5.28;1.90;;;17.50;99.90;;;;;;4870565;29;37589;-80
2022/07/11 01:04:05;;;;;;;5.53;1.83;;;17.50;99.90;;;;;;4881074;29;38985;-81
2022/07/11 01:06:32;;;;;;;4.60;1.50;;;17.40;99.90;;;;;;4896514;29;39461;-81
2022/07/11 01:09:02;;;;;;;5.72;1.80;;;17.40;99.90;;;;;;4900635;29;39668;-81
2022/07/11 01:11:33;;;;;;;5.78;1.60;;;17.40;99.90;;;;;;4882965;29;48459;-81
2022/07/11 01:14:02;;;;;;;5.68;1.92;;;17.40;99.90;;;;;;4887593;29;37378;-82
2022/07/11 01:16:31;;;;;;;9.20;2.03;;;17.40;99.90;;;;;;4898223;29;48366;-81
2022/07/11 01:19:00;;;;;;;4.68;1.88;;;17.40;99.90;;;;;;4906512;29;37823;-80
2022/07/11 01:21:35;;;;;;;6.93;1.77;;;17.40;99.90;;;;;;4894784;29;37645;-81
2022/07/11 01:26:39;;;;;;;5.03;1.10;;;17.50;99.90;;;;;;5239619;23;20187;-80
2022/07/11 01:29:11;;;;;;;4.90;1.48;;;17.40;99.90;;;;;;4903983;29;38591;-79
2022/07/11 01:31:41;;;;;;;3.90;1.50;;;17.40;99.90;;;;;;4905739;29;37619;-80
2022/07/11 01:34:09;;;;;;;3.22;1.75;;;17.50;99.90;;;;;;4904447;29;36885;-78
2022/07/11 01:36:35;;;;;;;7.63;1.67;;;17.50;99.90;;;;;;4903802;29;38971;-79
2022/07/11 01:39:03;;;;;;;5.00;1.52;;;17.50;99.90;;;;;;4898661;29;38627;-80
2022/07/11 01:41:29;;;;;;;4.55;1.50;;;17.50;99.90;;;;;;4901289;29;37410;-81
2022/07/11 01:43:55;;;;;;;3.50;1.55;;;17.50;99.90;;;;;;4901765;29;37421;-79
2022/07/11 01:46:21;;;;;;;9.18;2.10;;;17.60;99.90;;;;;;4891200;29;39146;-80
2022/07/11 01:48:48;;;;;;;4.95;1.48;;;17.60;99.90;;;;;;4898693;29;38596;-80
2022/07/11 01:51:14;;;;;;;5.32;1.65;;;17.60;99.90;;;;;;4901266;29;38079;-81
2022/07/11 01:53:41;;;;;;;2.55;1.42;;;17.60;99.90;;;;;;4916591;29;38530;-79
2022/07/11 01:56:07;;;;;;;5.75;1.35;;;17.60;99.90;;;;;;4893635;29;38122;-80
2022/07/11 01:58:40;;;;;;;4.15;1.25;;;17.60;99.90;;;;;;4917150;29;39470;-82
2022/07/11 02:01:09;;;;;;;3.45;1.45;;;17.60;99.90;;;;;;4902432;29;38221;-81
2022/07/11 02:03:38;;;;;;;6.03;1.67;;;17.70;99.90;;;;;;4893335;29;37497;-81
2022/07/11 02:06:05;;;;;;;4.28;1.33;;;17.70;99.90;;;;;;4896664;29;39325;-81
2022/07/11 02:08:32;;;;;;;5.60;2.30;;;17.70;99.90;;;;;;4898942;29;37675;-80
2022/07/11 02:10:59;;;;;;;5.13;1.58;;;17.70;99.90;;;;;;4912279;29;37698;-80
2022/07/11 02:13:25;;;;;;;6.60;1.48;;;17.70;99.90;;;;;;4909936;29;37403;-80
2022/07/11 02:15:53;;;;;;;3.17;1.25;;;17.70;99.90;;;;;;4920270;29;40285;-81
2022/07/11 02:18:20;;;;;;;5.50;1.35;;;17.70;99.90;;;;;;4919117;29;39720;-81
2022/07/11 02:20:48;;;;;;;3.92;1.70;;;17.70;99.90;;;;;;4904425;29;39655;-80
2022/07/11 02:23:17;;;;;;;4.47;1.60;;;17.70;99.90;;;;;;4895992;29;37324;-81
2022/07/11 02:25:43;;;;;;;3.55;1.35;;;17.80;99.90;;;;;;4900719;29;37654;-80
2022/07/11 02:28:19;;;;;;;5.38;1.60;;;17.80;99.90;;;;;;4899908;29;38537;-80
2022/07/11 02:30:46;;;;;;;9.07;1.50;;;17.70;99.90;;;;;;4900228;29;38840;-81
2022/07/11 02:33:15;;;;;;;4.38;1.35;;;17.70;99.90;;;;;;4899810;29;37287;-80
2022/07/11 02:35:46;;;;;;;4.00;1.45;;;17.70;99.90;;;;;;4901456;29;40154;-80
2022/07/11 02:38:14;;;;;;;4.07;1.40;;;17.70;99.90;;;;;;4893498;29;38592;-80
2022/07/11 02:40:41;;;;;;;5.60;1.45;;;17.70;99.90;;;;;;4900721;29;38513;-80
2022/07/11 02:43:09;;;;;;;5.25;1.40;;;17.70;99.90;;;;;;4900013;29;37631;-80
2022/07/11 02:45:36;;;;;;;3.20;1.45;;;17.60;99.90;;;;;;4918328;29;39434;-80
2022/07/11 02:48:02;;;;;;;5.32;1.42;;;17.70;99.90;;;;;;4894187;29;38948;-81
2022/07/11 02:50:29;;;;;;;1.92;1.00;;;17.70;99.90;;;;;;4903616;29;38101;-81
2022/07/11 02:52:58;;;;;;;5.88;1.42;;;17.70;99.90;;;;;;4920733;29;37176;-80
2022/07/11 02:55:24;;;;;;;2.65;1.13;;;17.80;99.90;;;;;;4902181;29;38018;-80
2022/07/11 02:57:51;;;;;;;5.47;1.20;;;17.80;99.90;;;;;;4903222;29;37340;-80
2022/07/11 03:00:19;;;;;;;2.78;1.15;;;17.90;99.90;;;;;;4899625;29;37870;-81
2022/07/11 03:02:46;;;;;;;1.42;1.10;;;17.80;99.90;;;;;;4901845;29;39034;-81
2022/07/11 03:05:18;;;;;;;5.25;1.55;;;17.90;99.90;;;;;;4901769;29;39069;-80
2022/07/11 03:07:45;;;;;;;4.07;1.50;;;17.90;99.90;;;;;;4903426;29;37606;-81
2022/07/11 03:10:11;;;;;;;2.83;1.27;;;17.90;99.90;;;;;;4902738;29;37700;-80
2022/07/11 03:12:38;;;;;;;7.75;1.50;;;17.90;99.90;;;;;;4903262;29;37317;-79
2022/07/11 03:15:10;;;;;;;6.65;1.60;;;17.90;99.90;;;;;;4902054;29;38753;-79
2022/07/11 03:17:36;;;;;;;3.70;1.17;;;17.90;99.90;;;;;;4921515;29;39586;-80
2022/07/11 03:20:42;;;;;;;3.15;0.88;;;18.00;99.90;;;;;;4897677;29;38358;-80
2022/07/11 03:23:12;;;;;;;4.70;1.20;;;17.90;99.90;;;;;;4882273;29;48901;-80
2022/07/11 03:25:39;;;;;;;3.58;1.30;;;18.00;99.90;;;;;;4881687;29;38877;-81
2022/07/11 03:28:17;;;;;;;3.60;1.17;;;18.00;99.90;;;;;;4884126;29;39778;-80
2022/07/11 03:30:45;;;;;;;3.88;1.38;;;18.00;99.90;;;;;;4868128;29;38043;-80
2022/07/11 03:33:11;;;;;;;3.13;1.15;;;18.00;99.90;;;;;;4876175;29;37672;-80
2022/07/11 03:35:47;;;;;;;4.43;1.30;;;18.00;99.90;;;;;;4899527;29;40053;-79
2022/07/11 03:38:17;;;;;;;6.65;1.52;;;18.00;99.90;;;;;;4874801;29;38544;-80
2022/07/11 03:40:43;;;;;;;3.95;1.40;;;18.00;99.90;;;;;;4872742;29;38895;-81
2022/07/11 03:43:09;;;;;;;4.85;1.20;;;17.90;99.90;;;;;;4872474;29;36766;-81
2022/07/11 03:45:36;;;;;;;4.55;1.20;;;17.90;99.90;;;;;;4872463;29;39074;-81
2022/07/11 03:48:03;;;;;;;4.93;1.10;;;17.90;99.90;;;;;;4872408;29;37455;-80
2022/07/11 03:50:30;;;;;;;2.03;1.20;;;17.90;99.90;;;;;;4873713;29;37822;-81
2022/07/11 03:52:58;;;;;;;3.83;1.38;;;17.90;99.90;;;;;;4874106;29;36661;-80
2022/07/11 03:55:25;;;;;;;5.72;1.50;;;17.80;99.90;;;;;;4872868;29;37946;-81
2022/07/11 03:57:56;;;;;;;4.88;1.10;;;17.90;99.90;;;;;;4873841;29;38617;-81
2022/07/11 04:00:22;;;;;;;3.17;1.00;;;17.90;99.90;;;;;;4865730;29;38069;-81
2022/07/11 04:02:50;;;;;;;3.92;0.90;;;17.90;99.90;;;;;;4881444;29;36095;-81
2022/07/11 04:05:16;;;;;;;3.63;0.98;;;17.90;99.90;;;;;;4881213;29;38652;-81
2022/07/11 04:07:43;;;;;;;3.00;0.93;;;17.90;99.90;;;;;;4879769;29;37034;-81
2022/07/11 04:10:09;;;;;;;2.25;0.90;;;17.90;99.90;;;;;;4876708;29;36470;-80
2022/07/11 04:12:40;;;;;;;4.05;1.00;;;17.90;99.90;;;;;;4883230;29;35817;-81
2022/07/11 04:15:06;;;;;;;5.88;1.05;;;17.90;99.90;;;;;;4879147;29;38500;-79
2022/07/11 04:17:40;;;;;;;3.50;1.17;;;17.90;99.90;;;;;;4883347;29;40264;-80
2022/07/11 04:20:07;;;;;;;3.80;1.10;;;17.90;99.90;;;;;;4881901;29;37771;-80
2022/07/11 04:22:33;;;;;;;5.85;1.27;;;17.90;99.90;;;;;;4883412;29;37463;-80
2022/07/11 04:25:00;;;;;;;2.28;0.80;;;17.80;99.90;;;;;;4884459;29;37887;-81
2022/07/11 04:27:26;;;;;;;3.60;1.00;;;17.80;99.90;;;;;;4883812;29;40255;-80
2022/07/11 04:29:52;;;;;;;4.07;0.80;;;17.80;99.90;;;;;;4880153;29;37950;-80
2022/07/11 04:32:20;;;;;;;3.10;1.02;;;17.80;99.90;;;;;;4881866;29;39406;-79
2022/07/11 04:34:46;;;;;;;2.60;0.88;;;17.90;99.90;;;;;;4882807;29;39214;-80
2022/07/11 04:37:12;;;;;;;2.53;0.90;;;17.80;99.90;;;;;;4883504;29;38397;-81
2022/07/11 04:39:39;;;;;;;2.13;0.80;;;17.80;99.90;;;;;;4884547;29;37862;-79
2022/07/11 04:42:06;;;;;;;2.80;1.00;;;17.90;99.90;;;;;;4886114;29;37324;-80
2022/07/11 04:44:36;;;;;;;1.67;0.60;;;17.90;99.90;;;;;;4870703;29;40454;-80
2022/07/11 04:47:04;;;;;;;2.90;0.70;;;17.80;99.90;;;;;;4887260;29;38464;-81
2022/07/11 04:49:31;;;;;;;2.65;0.80;;;17.70;99.90;;;;;;4886516;29;39601;-81
2022/07/11 04:51:59;;;;;;;3.20;0.85;;;17.80;99.90;;;;;;4887119;29;35894;-79
2022/07/11 04:54:25;;;;;;;1.88;0.60;;;17.80;99.90;;;;;;4887812;29;38853;-80
2022/07/11 04:56:51;;;;;;;1.73;0.77;;;17.80;99.90;;;;;;4872409;29;39860;-80
2022/07/11 04:59:17;;;;;;;1.63;0.68;;;17.70;99.90;;;;;;4883325;29;38602;-80
2022/07/11 05:01:44;;;;;;;1.75;0.70;;;17.70;99.90;;;;;;4885870;29;37220;-80
2022/07/11 05:04:10;;;;;;;2.92;0.80;;;17.70;99.90;;;;;;4867458;29;39372;-80
2022/07/11 05:06:38;;;;;;;1.38;0.50;;;17.70;99.90;;;;;;4885300;29;38236;-80
2022/07/11 05:09:07;;;;;;;1.50;0.50;;;17.70;99.90;;;;;;4886724;29;36873;-81
2022/07/11 05:11:34;;;;;;;2.67;0.60;;;17.80;99.90;;;;;;4886621;29;36649;-81
2022/07/11 05:22:59;;;;;;;1.50;0.70;;;17.90;99.90;;;;;;5918033;23;21175;31
2022/07/11 05:25:28;;;;;;;3.10;0.70;;;17.90;99.90;;;;;;4861306;29;39546;-80
2022/07/11 05:28:01;;;;;;;2.33;0.50;;;17.90;99.90;;;;;;5130714;24;38529;-80
2022/07/11 05:30:29;;;;;;;3.17;0.80;;;18.00;99.90;;;;;;4877409;29;47282;-81
2022/07/11 05:33:02;;;;;;;3.45;0.90;;;18.00;99.90;;;;;;4876937;29;38585;-81
2022/07/11 05:35:41;;;;;;;2.15;0.82;;;18.00;99.90;;;;;;4872508;29;49985;-81
2022/07/11 05:38:09;;;;;;;3.05;0.88;;;18.00;99.90;;;;;;4880703;29;38742;-81
2022/07/11 05:40:38;;;;;;;2.00;0.77;;;18.10;99.90;;;;;;4884183;29;37930;-80
2022/07/11 05:43:08;;;;;;;1.48;0.82;;;18.10;99.90;;;;;;4870477;29;37655;-81
2022/07/11 05:48:12;;;;;;;2.40;1.23;;;18.00;99.90;;;;;;4983510;24;20045;-81
2022/07/11 05:50:39;;;;;;;2.05;1.00;;;18.00;99.90;;;;;;4905690;29;38074;-80
2022/07/11 05:53:06;;;;;;;2.95;1.20;;;18.10;99.90;;;;;;4897937;29;37807;-80
2022/07/11 05:55:32;;;;;;;1.95;0.90;;;18.10;99.90;;;;;;4904800;29;39177;-80
2022/07/11 05:58:13;;;;;;;2.75;0.90;;;18.10;99.90;;;;;;4904222;29;38625;-81
2022/07/11 06:08:43;;;;;;;3.50;1.58;;;18.20;99.90;;;;;;4988906;23;20088;-80
2022/07/11 06:11:13;;;;;;;5.00;1.40;;;18.20;99.90;;;;;;4901782;29;39554;-80
2022/07/11 06:26:45;;;;;;;2.15;1.10;;;18.40;99.90;;;;;;5196926;23;20053;-80
2022/07/11 06:29:12;;;;;;;4.05;1.30;;;18.40;99.90;;;;;;4882346;29;38282;-80
2022/07/11 06:44:39;;;;;;;1.88;0.90;;;18.80;99.90;;;;;;5442552;23;20062;-80
2022/07/11 06:49:43;;;;;;;1.77;1.40;;;18.70;99.90;;;;;;5482152;24;20057;-80
2022/07/11 06:52:17;;;;;;;2.25;1.10;;;18.70;99.90;;;;;;4856517;29;37991;-80
2022/07/11 06:54:47;;;;;;;2.75;1.10;;;18.80;99.90;;;;;;4845874;29;37662;-80
2022/07/11 06:57:17;;;;;;;2.38;0.90;;;18.80;99.90;;;;;;4859628;29;39270;-81
2022/07/11 07:28:28;;;;;;;2.97;0.98;;;19.70;99.90;;;;;;5074048;23;20048;-80
2022/07/11 07:31:04;;;;;;;;;;;19.60;99.90;;;;;;4867613;29;38041;-80
2022/07/11 07:49:10;;;;;;;5.40;1.50;;;19.60;99.90;;;;;;5138166;23;20041;-80
2022/07/11 07:54:15;;;;;;;1.55;1.00;;;19.50;99.90;;;;;;5050672;23;19934;-81
2022/07/11 07:56:55;;;;;;;1.67;1.20;;;19.50;99.90;;;;;;4887035;29;38461;-81
2022/07/11 16:09:14;;;;;;;5.32;2.30;;;28.30;99.90;;;;;;5867695;23;20021;-81
2022/07/11 16:23:57;;;;;;;3.05;1.98;;;27.80;99.90;;;;;;5390527;23;20046;-81
2022/07/11 16:26:31;;;;;;;2.75;1.75;;;27.80;99.90;;;;;;4863711;29;38715;-81
2022/07/11 16:29:04;;;;;;;2.17;1.92;;;27.60;99.90;;;;;;4878651;29;37269;-81
2022/07/11 16:55:03;;;;;;;3.38;2.72;;;26.80;99.90;;;;;;5650447;23;20046;-80
2022/07/11 16:57:34;;;;;;;4.40;2.88;;;26.50;99.90;;;;;;4850619;29;38822;-82
2022/07/11 17:00:05;;;;;;;3.22;3.00;;;26.50;99.90;;;;;;4866732;29;37021;-82
2022/07/11 17:02:33;;;;;;;3.08;2.88;;;26.40;99.90;;;;;;4838875;29;50046;-82
2022/07/11 17:05:02;;;;;;;3.55;2.90;;;26.30;99.90;;;;;;4880536;29;39262;-81
2022/07/11 17:08:42;;;;;;;2.85;2.05;;;26.40;99.90;;;;;;4867591;29;38856;-83
2022/07/11 17:13:13;;;;;;;1.67;1.50;;;26.60;99.90;;;;;;5057515;23;20044;-84
2022/07/11 17:16:04;;;;;;;2.88;2.17;;;26.50;99.90;;;;;;4854729;29;39232;-82
2022/07/11 17:18:37;;;;;;;2.80;2.40;;;26.40;99.90;;;;;;4848240;29;49086;-83
2022/07/11 18:10:26;;;;;;;3.58;2.35;;;25.90;99.90;;;;;;5557185;23;20034;-82
2022/07/11 18:29:24;;;;;;;2.72;2.47;;;25.30;99.90;;;;;;5881474;23;20371;-83
2022/07/11 18:52:53;;;;;;;3.13;2.17;;;24.90;99.90;;;;;;4957625;23;20049;-82
2022/07/11 18:55:24;;;;;;;2.85;1.70;;;24.60;99.90;;;;;;4899149;29;39561;-81
2022/07/11 18:58:04;;;;;;;2.30;1.80;;;24.40;99.90;;;;;;4884251;29;39003;-83
2022/07/11 19:01:00;;;;;;;2.00;1.70;;;24.30;99.90;;;;;;4862758;29;48799;-83
2022/07/11 19:03:30;;;;;;;3.47;1.90;;;24.10;99.90;;;;;;4863029;29;38724;-81
2022/07/11 19:05:57;;;;;;;1.70;1.60;;;23.90;99.90;;;;;;4871060;29;37462;-81
2022/07/11 19:08:34;;;;;;;2.03;1.67;;;23.80;99.90;;;;;;4877856;29;36019;-82
2022/07/11 19:11:07;;;;;;;1.50;1.30;;;23.80;99.90;;;;;;4883433;29;38735;-81
2022/07/11 19:13:48;;;;;;;2.13;1.05;;;23.80;99.90;;;;;;4876494;29;48956;-82
2022/07/11 19:22:15;;;;;;;1.27;0.90;;;23.50;99.90;;;;;;4862637;23;20046;-82
2022/07/11 19:24:46;;;;;;;1.23;1.10;;;23.40;99.90;;;;;;4841492;29;38016;-82
2022/07/11 19:27:13;;;;;;;1.55;0.90;;;23.40;99.90;;;;;;4853442;29;38223;-81
2022/07/11 19:30:07;;;;;;;2.45;1.17;;;23.30;99.90;;;;;;4837600;29;38586;-81
2022/07/11 19:32:39;;;;;;;1.33;1.20;;;23.20;99.90;;;;;;4835735;29;47817;-82
2022/07/11 19:35:14;;;;;;;4.93;1.10;;;22.90;99.90;;;;;;4832032;29;39009;-80
2022/07/11 19:37:51;;;;;;;1.00;0.68;;;22.80;99.90;;;;;;4844073;29;38504;-82
2022/07/11 19:40:29;;;;;;;2.65;0.90;;;22.80;99.90;;;;;;4831340;29;37303;-81
2022/07/11 19:48:08;;;;;;;0.93;0.90;;;22.50;99.90;;;;;;5119652;23;20061;-81
2022/07/11 19:50:44;;;;;;;0.75;0.60;;;22.40;99.90;;;;;;4877304;29;36776;-81
2022/07/11 19:53:13;;;;;;;0.75;0.52;;;22.30;99.90;;;;;;4820016;29;39525;-81
2022/07/11 19:59:02;;;;;;;1.45;0.68;;;22.20;99.90;;;;;;4900091;29;50672;-81
2022/07/11 20:01:48;;;;;;;1.05;0.68;;;22.20;99.90;;;;;;4888089;29;50173;-81
2022/07/11 20:04:15;;;;;;;0.77;0.47;;;22.10;99.90;;;;;;4872702;29;39396;-80
2022/07/11 20:07:02;;;;;;;1.77;0.80;;;22.10;99.90;;;;;;4865251;29;40359;-81
2022/07/11 20:09:55;;;;;;;1.77;0.65;;;22.00;99.90;;;;;;4874722;29;48528;-81
2022/07/11 20:15:02;;;;;;;0.70;0.63;;;21.90;99.90;;;;;;5488678;23;20064;-81
2022/07/11 20:20:27;;;;;;;0.90;0.60;;;21.90;99.90;;;;;;5259650;23;20049;-82
2022/07/11 20:23:16;;;;;;;0.60;0.50;;;21.80;99.90;;;;;;4866474;29;37201;-81
2022/07/11 20:25:43;;;;;;;0.70;0.60;;;21.80;99.90;;;;;;4851584;29;47904;-80
2022/07/11 20:28:25;;;;;;;1.30;0.60;;;21.80;99.90;;;;;;4867025;29;38895;-81
2022/07/11 20:30:54;;;;;;;0.93;0.70;;;21.70;99.90;;;;;;4892026;29;38561;-80
2022/07/11 20:33:23;;;;;;;1.05;0.40;;;21.70;99.90;;;;;;4857770;29;36862;-80
2022/07/11 20:46:26;;;;;;;1.17;0.60;;;21.40;99.90;;;;;;4841825;23;20045;-80
2022/07/11 20:54:40;;;;;;;0.40;0.40;;;21.20;99.90;;;;;;5159904;23;20053;-82
2022/07/11 20:57:10;;;;;;;1.08;0.52;;;21.20;99.90;;;;;;4891356;29;38478;-81
2022/07/11 21:10:10;;;;;;;1.60;0.50;;;20.80;99.90;;;;;;5111882;23;20057;-80
2022/07/11 21:12:39;;;;;;;1.05;0.85;;;20.70;99.90;;;;;;4865522;29;48268;-82
2022/07/11 21:15:18;;;;;;;1.48;0.77;;;20.70;99.90;;;;;;4884333;29;38771;-82
2022/07/11 21:21:36;;;;;;;4.85;1.00;;;20.60;99.90;;;;;;4873742;29;49968;-82
2022/07/11 21:24:09;;;;;;;0.70;0.70;;;20.60;99.90;;;;;;4855830;29;39115;-81
2022/07/11 21:26:55;;;;;;;1.10;0.60;;;20.60;99.90;;;;;;4864641;29;37245;-81
2022/07/11 21:29:50;;;;;;;1.95;0.80;;;20.70;99.90;;;;;;4868064;29;41999;-81
2022/07/11 21:40:18;;;;;;;0.80;0.80;;;20.50;99.90;;;;;;5196199;23;20046;-80
2022/07/11 21:42:51;;;;;;;1.40;1.02;;;20.50;99.90;;;;;;4884330;29;39272;-82
2022/07/11 21:45:25;;;;;;;1.20;0.77;;;20.50;99.90;;;;;;4874386;29;38681;-80
2022/07/11 21:47:56;;;;;;;1.35;0.70;;;20.40;99.90;;;;;;4894353;29;38076;-81
2022/07/11 21:50:24;;;;;;;2.20;0.73;;;20.40;99.90;;;;;;4880220;29;39208;-82
2022/07/11 21:52:54;;;;;;;0.63;0.57;;;20.30;99.90;;;;;;4882127;29;38422;-81
2022/07/11 21:55:33;;;;;;;1.13;0.60;;;20.30;99.90;;;;;;4866039;29;38388;-81
2022/07/11 21:58:05;;;;;;;1.60;1.00;;;20.20;99.90;;;;;;4884057;29;37230;-81
2022/07/11 22:00:41;;;;;;;1.25;0.52;;;20.20;99.90;;;;;;4871030;29;48329;-81
2022/07/11 22:03:08;;;;;;;2.45;0.85;;;20.10;99.90;;;;;;4867601;29;38597;-81
2022/07/11 22:05:38;;;;;;;2.05;0.65;;;20.00;99.90;;;;;;4878330;29;37889;-81
2022/07/11 22:08:05;;;;;;;0.90;0.60;;;20.00;99.90;;;;;;4878262;29;37125;-80
2022/07/11 22:10:34;;;;;;;2.50;1.25;;;20.00;99.90;;;;;;4876095;29;38172;-80
2022/07/11 22:13:01;;;;;;;1.70;0.68;;;19.90;99.90;;;;;;4878408;29;40220;-79
2022/07/11 22:15:38;;;;;;;1.38;0.65;;;19.80;99.90;;;;;;4899769;29;50011;-81
2022/07/11 22:18:05;;;;;;;0.82;0.50;;;19.80;99.90;;;;;;4884280;29;38673;-80
2022/07/11 22:20:32;;;;;;;0.93;0.60;;;19.80;99.90;;;;;;4894314;29;40227;-79
2022/07/11 22:23:00;;;;;;;0.63;0.60;;;19.80;99.90;;;;;;4883254;29;38840;-81
2022/07/11 22:25:28;;;;;;;1.13;0.60;;;19.80;99.90;;;;;;4877766;29;36694;-80
2022/07/11 22:28:14;;;;;;;0.80;0.60;;;19.90;99.90;;;;;;4893818;29;39165;-80
2022/07/11 22:30:42;;;;;;;0.70;0.65;;;19.80;99.90;;;;;;4901506;29;47957;-81
2022/07/11 22:33:10;;;;;;;0.90;0.60;;;19.80;99.90;;;;;;4979456;24;38596;-80
2022/07/11 22:38:13;;;;;;;0.88;0.50;;;19.70;99.90;;;;;;5026424;23;20041;-81
2022/07/11 22:40:45;;;;;;;0.82;0.43;;;19.70;99.90;;;;;;4885643;29;38825;-81
2022/07/11 22:43:28;;;;;;;2.08;0.52;;;19.60;99.90;;;;;;4899602;29;40038;-81
2022/07/11 22:45:56;;;;;;;1.25;0.50;;;19.50;99.90;;;;;;4892785;29;39060;-81
2022/07/11 22:48:30;;;;;;;0.77;0.50;;;19.50;99.90;;;;;;4878115;29;37592;-82
2022/07/11 22:51:18;;;;;;;0.90;0.60;;;19.50;99.90;;;;;;4898293;29;39442;-82
2022/07/11 22:53:46;;;;;;;1.67;0.70;;;19.50;99.90;;;;;;4858353;29;49194;-81
2022/07/11 22:56:22;;;;;;;1.38;0.70;;;19.40;99.90;;;;;;4895351;29;39105;-81
2022/07/11 22:59:03;;;;;;;1.48;0.70;;;19.20;99.90;;;;;;4889123;29;37761;-82
2022/07/11 23:01:34;;;;;;;1.10;0.65;;;19.10;99.90;;;;;;4858359;29;49264;-81
2022/07/11 23:04:06;;;;;;;0.60;0.60;;;19.10;99.90;;;;;;4861498;29;38741;-82
2022/07/11 23:06:54;;;;;;;0.68;0.63;;;19.10;99.90;;;;;;4848970;29;48041;-81
2022/07/11 23:09:25;;;;;;;1.13;0.73;;;19.00;99.90;;;;;;4875196;29;38481;-81
2022/07/11 23:11:57;;;;;;;0.95;0.70;;;18.90;99.90;;;;;;4868997;29;40199;-81
2022/07/11 23:14:29;;;;;;;1.05;1.02;;;18.90;99.90;;;;;;4833883;29;38635;-82
2022/07/11 23:17:05;;;;;;;1.55;1.20;;;18.90;99.90;;;;;;4870709;29;38813;-82
2022/07/11 23:20:35;;;;;;;1.90;0.95;;;18.80;99.90;;;;;;4870561;29;50385;-81
2022/07/11 23:23:04;;;;;;;1.10;0.75;;;18.80;99.90;;;;;;4868973;29;48496;-81
2022/07/11 23:25:41;;;;;;;1.05;0.55;;;18.70;99.90;;;;;;4854811;29;39910;-79
2022/07/11 23:28:19;;;;;;;2.00;0.90;;;18.70;99.90;;;;;;4881631;29;39484;-82
2022/07/11 23:30:48;;;;;;;1.60;1.15;;;18.70;99.90;;;;;;4882994;29;37991;-81
2022/07/11 23:33:40;;;;;;;1.20;0.70;;;18.60;99.90;;;;;;4881827;29;39566;-80
2022/07/11 23:36:35;;;;;;;1.65;0.73;;;18.50;99.90;;;;;;4890279;29;39789;-82
2022/07/11 23:39:20;;;;;;;2.30;0.88;;;18.40;99.90;;;;;;4833852;29;38785;-81
2022/07/11 23:41:47;;;;;;;1.02;0.82;;;18.40;99.90;;;;;;4854044;29;50284;-82
2022/07/11 23:44:16;;;;;;;1.20;0.85;;;18.30;99.90;;;;;;4856582;29;38626;-82
2022/07/11 23:46:54;;;;;;;1.05;0.80;;;18.20;99.90;;;;;;4867487;29;39890;-80
2022/07/11 23:49:23;;;;;;;1.23;0.93;;;18.20;99.90;;;;;;4840822;29;38419;-80
2022/07/11 23:51:51;;;;;;;0.95;0.77;;;18.20;99.90;;;;;;4871550;29;38866;-82
2022/07/11 23:54:17;;;;;;;2.75;0.70;;;18.10;99.90;;;;;;4867108;29;39496;-81
2022/07/11 23:56:47;;;;;;;1.45;0.98;;;18.10;99.90;;;;;;4866231;29;38834;-81
2022/07/11 23:59:14;;;;;;;2.58;1.10;;;18.00;99.90;;;;;;4861921;29;38263;-80
